Time;durP1;ratioP1;P1;durP2;ratioP2;P2;SDS_P1;SDS_P2;PMS_P1;PMS_P2;Temp;Humidity;BMP_temperature;BMP_pressure;BME280_temperature;BME280_humidity;BME280_pressure;Samples;Min_cycle;Max_cycle;Signal;HPM_P1;HPM_P2
2021/06/08 00:00:11;;;;;;;12.83;6.57;;;;;;;;;;5092906;28;20107;-70
2021/06/08 00:02:36;;;;;;;12.23;6.43;;;;;;;;;;5095858;28;20075;-70
2021/06/08 00:05:02;;;;;;;12.57;6.93;;;;;;;;;;5092320;28;20031;-70
2021/06/08 00:07:27;;;;;;;14.73;6.87;;;;;;;;;;5089290;28;20020;-70
2021/06/08 00:09:53;;;;;;;12.43;6.63;;;;;;;;;;5091369;28;20034;-70
2021/06/08 00:12:18;;;;;;;16.50;7.20;;;;;;;;;;5087966;28;20036;-70
2021/06/08 00:14:43;;;;;;;15.90;7.47;;;;;;;;;;5092394;28;20056;-70
2021/06/08 00:17:09;;;;;;;12.70;6.70;;;;;;;;;;5085534;28;20028;-70
2021/06/08 00:19:34;;;;;;;13.83;7.37;;;;;;;;;;5097447;28;20024;-70
2021/06/08 00:21:59;;;;;;;13.70;7.37;;;;;;;;;;5083685;28;20028;-70
2021/06/08 00:24:25;;;;;;;12.83;7.30;;;;;;;;;;5091583;28;20103;-70
2021/06/08 00:26:50;;;;;;;13.70;6.70;;;;;;;;;;5089788;28;20050;-70
2021/06/08 00:29:15;;;;;;;13.37;7.10;;;;;;;;;;5091541;28;20077;-70
2021/06/08 00:31:40;;;;;;;14.43;6.67;;;;;;;;;;5092852;28;20032;-70
2021/06/08 00:34:06;;;;;;;13.70;6.90;;;;;;;;;;5091900;28;20092;-70
2021/06/08 00:36:31;;;;;;;14.03;6.90;;;;;;;;;;5087747;28;20028;-70
2021/06/08 00:38:56;;;;;;;13.43;6.93;;;;;;;;;;5084699;28;20031;-70
2021/06/08 00:41:32;;;;;;;13.40;6.77;;;;;;;;;;5093452;28;20113;-70
2021/06/08 00:44:01;;;;;;;14.00;6.80;;;;;;;;;;5091622;28;20054;-70
2021/06/08 00:46:26;;;;;;;14.13;7.20;;;;;;;;;;5089151;28;20023;-70
2021/06/08 00:48:51;;;;;;;16.00;7.43;;;;;;;;;;5092353;28;20073;-70
2021/06/08 00:51:17;;;;;;;14.73;7.67;;;;;;;;;;5094194;28;20024;-70
2021/06/08 00:53:42;;;;;;;14.37;7.37;;;;;;;;;;5085208;28;20025;-70
2021/06/08 00:56:07;;;;;;;15.50;7.77;;;;;;;;;;5091268;28;20039;-70
2021/06/08 00:58:33;;;;;;;14.10;7.30;;;;;;;;;;5086599;28;20103;-70
2021/06/08 01:00:58;;;;;;;20.20;8.03;;;;;;;;;;5089753;28;20031;-70
2021/06/08 01:03:23;;;;;;;17.07;8.10;;;;;;;;;;5088698;28;20462;-70
2021/06/08 01:05:48;;;;;;;18.80;8.03;;;;;;;;;;5092277;28;20038;-70
2021/06/08 01:08:14;;;;;;;24.17;9.17;;;;;;;;;;5086379;28;20020;-70
2021/06/08 01:10:39;;;;;;;19.77;7.60;;;;;;;;;;5092220;28;20054;-70
2021/06/08 01:13:05;;;;;;;19.63;7.80;;;;;;;;;;5084042;28;20032;-70
2021/06/08 01:15:30;;;;;;;20.40;8.43;;;;;;;;;;5092398;28;20815;-70
2021/06/08 01:17:55;;;;;;;16.27;7.37;;;;;;;;;;5094136;28;20564;-70
2021/06/08 01:20:21;;;;;;;18.13;8.30;;;;;;;;;;5086322;28;20094;-70
2021/06/08 01:22:46;;;;;;;22.60;8.63;;;;;;;;;;5088441;28;20024;-70
2021/06/08 01:25:12;;;;;;;19.23;7.97;;;;;;;;;;5099278;28;20375;-70
2021/06/08 01:27:38;;;;;;;20.20;8.57;;;;;;;;;;5091807;28;20035;-70
2021/06/08 01:30:04;;;;;;;21.20;9.10;;;;;;;;;;5094021;28;20069;-70
2021/06/08 01:32:30;;;;;;;20.93;9.60;;;;;;;;;;5088375;28;20460;-70
2021/06/08 01:34:56;;;;;;;18.07;8.13;;;;;;;;;;5093819;28;20023;-70
2021/06/08 01:37:22;;;;;;;22.97;9.97;;;;;;;;;;5091464;28;20123;-70
2021/06/08 01:39:48;;;;;;;25.37;9.37;;;;;;;;;;5086054;28;20017;-70
2021/06/08 01:42:14;;;;;;;20.17;8.77;;;;;;;;;;5092649;28;20031;-70
2021/06/08 01:44:41;;;;;;;23.93;9.00;;;;;;;;;;5094224;28;20035;-70
2021/06/08 01:47:06;;;;;;;21.63;9.77;;;;;;;;;;5089628;28;20042;-70
2021/06/08 01:49:31;;;;;;;21.83;9.20;;;;;;;;;;5092836;28;20024;-70
2021/06/08 01:52:09;;;;;;;25.80;9.10;;;;;;;;;;5096237;28;20028;-70
2021/06/08 01:54:37;;;;;;;24.00;9.10;;;;;;;;;;5089327;28;20115;-70
2021/06/08 01:57:10;;;;;;;21.53;9.17;;;;;;;;;;5093459;28;20391;-70
2021/06/08 02:00:14;;;;;;;23.13;8.47;;;;;;;;;;5090089;28;20149;-70
2021/06/08 02:03:03;;;;;;;21.90;8.97;;;;;;;;;;5011494;28;20049;-70
2021/06/08 02:05:37;;;;;;;20.13;8.97;;;;;;;;;;5009112;28;20109;-70
2021/06/08 02:08:14;;;;;;;20.53;8.40;;;;;;;;;;5005702;28;20553;-70
2021/06/08 02:10:45;;;;;;;22.30;9.57;;;;;;;;;;5013652;28;20026;-70
2021/06/08 02:13:13;;;;;;;27.73;10.23;;;;;;;;;;5007294;28;20425;-70
2021/06/08 02:15:40;;;;;;;23.50;9.00;;;;;;;;;;5009206;28;20277;-70
2021/06/08 02:18:07;;;;;;;26.20;9.63;;;;;;;;;;5005066;28;20116;-70
2021/06/08 02:20:35;;;;;;;24.07;9.97;;;;;;;;;;5012852;28;20061;-70
2021/06/08 02:23:03;;;;;;;22.40;9.33;;;;;;;;;;5013046;28;20075;-70
2021/06/08 02:25:29;;;;;;;24.63;10.40;;;;;;;;;;5005858;28;20072;-70
2021/06/08 02:27:56;;;;;;;25.67;9.67;;;;;;;;;;5009357;28;20033;-70
2021/06/08 02:30:22;;;;;;;25.40;9.43;;;;;;;;;;5001848;28;20023;-70
2021/06/08 02:32:48;;;;;;;24.77;9.63;;;;;;;;;;5026522;28;20439;-70
2021/06/08 02:35:13;;;;;;;26.00;10.17;;;;;;;;;;5091794;28;20035;-70
2021/06/08 02:37:40;;;;;;;22.30;9.07;;;;;;;;;;5088861;28;20024;-70
2021/06/08 02:40:06;;;;;;;25.23;10.33;;;;;;;;;;5097526;28;20106;-70
2021/06/08 02:42:32;;;;;;;27.57;10.57;;;;;;;;;;5088801;28;20036;-70
2021/06/08 02:44:58;;;;;;;21.20;9.10;;;;;;;;;;5091184;28;20495;-70
2021/06/08 02:47:23;;;;;;;25.30;9.10;;;;;;;;;;5091414;28;20344;-70
2021/06/08 02:49:49;;;;;;;23.30;9.27;;;;;;;;;;5088657;28;20755;-70
2021/06/08 02:52:15;;;;;;;23.10;9.57;;;;;;;;;;5092995;28;20123;-70
2021/06/08 02:54:41;;;;;;;23.43;9.67;;;;;;;;;;5092990;28;20036;-70
2021/06/08 02:57:07;;;;;;;21.83;9.03;;;;;;;;;;5094329;28;20057;-70
2021/06/08 02:59:33;;;;;;;27.77;10.33;;;;;;;;;;5088813;28;20019;-69
2021/06/08 03:02:02;;;;;;;25.67;10.50;;;;;;;;;;5095327;28;20061;-71
2021/06/08 03:04:33;;;;;;;22.17;8.97;;;;;;;;;;5092230;28;20028;-71
2021/06/08 03:07:00;;;;;;;22.60;9.20;;;;;;;;;;5093305;28;20055;-71
2021/06/08 03:09:35;;;;;;;23.60;10.27;;;;;;;;;;5097584;28;20023;-71
2021/06/08 03:12:01;;;;;;;25.83;9.47;;;;;;;;;;5090929;28;20104;-71
2021/06/08 03:14:27;;;;;;;23.33;8.97;;;;;;;;;;5087724;28;20484;-71
2021/06/08 03:16:54;;;;;;;21.80;9.20;;;;;;;;;;5093465;28;20028;-71
2021/06/08 03:19:21;;;;;;;23.67;9.77;;;;;;;;;;5093355;28;20020;-71
2021/06/08 03:21:48;;;;;;;20.93;9.23;;;;;;;;;;5089309;28;20060;-71
2021/06/08 03:24:18;;;;;;;25.10;8.60;;;;;;;;;;5093315;28;20011;-71
2021/06/08 03:26:44;;;;;;;20.27;8.83;;;;;;;;;;5095235;28;20020;-71
2021/06/08 03:29:11;;;;;;;21.43;9.90;;;;;;;;;;5089056;28;20118;-71
2021/06/08 03:31:38;;;;;;;23.03;8.60;;;;;;;;;;5091189;28;20103;-71
2021/06/08 03:34:04;;;;;;;25.03;9.87;;;;;;;;;;5091014;28;20027;-71
2021/06/08 03:36:30;;;;;;;27.33;9.67;;;;;;;;;;5092376;28;20027;-71
2021/06/08 03:38:56;;;;;;;25.10;9.47;;;;;;;;;;5093098;28;20043;-71
2021/06/08 03:41:22;;;;;;;25.27;9.50;;;;;;;;;;5095826;28;20028;-71
2021/06/08 03:43:47;;;;;;;24.93;10.23;;;;;;;;;;5093511;28;20024;-71
2021/06/08 03:46:13;;;;;;;26.30;9.87;;;;;;;;;;5087858;28;20024;-71
2021/06/08 03:48:38;;;;;;;22.80;9.43;;;;;;;;;;5092824;28;20024;-71
2021/06/08 03:51:04;;;;;;;24.07;9.57;;;;;;;;;;5093741;28;20349;-71
2021/06/08 03:53:30;;;;;;;23.73;9.73;;;;;;;;;;5092678;28;20047;-71
2021/06/08 03:55:55;;;;;;;23.57;10.33;;;;;;;;;;5098267;28;20031;-71
2021/06/08 03:58:21;;;;;;;24.83;9.83;;;;;;;;;;5087254;28;20050;-71
2021/06/08 04:00:47;;;;;;;20.73;9.20;;;;;;;;;;5092258;28;20024;-71
2021/06/08 04:03:13;;;;;;;23.53;9.17;;;;;;;;;;5090911;28;20044;-71
2021/06/08 04:05:39;;;;;;;21.00;8.73;;;;;;;;;;5094400;28;20023;-71
2021/06/08 04:08:05;;;;;;;22.00;9.03;;;;;;;;;;5092191;28;20028;-71
2021/06/08 04:10:31;;;;;;;23.80;9.23;;;;;;;;;;5091850;28;20043;-71
2021/06/08 04:13:00;;;;;;;22.33;9.83;;;;;;;;;;5087891;28;20039;-71
2021/06/08 04:15:25;;;;;;;22.13;9.30;;;;;;;;;;5092946;28;20467;-71
2021/06/08 04:17:52;;;;;;;22.13;9.90;;;;;;;;;;5092810;28;20073;-71
2021/06/08 04:20:17;;;;;;;20.90;9.47;;;;;;;;;;5093100;28;20070;-71
2021/06/08 04:22:45;;;;;;;23.83;9.63;;;;;;;;;;5085196;28;20365;-71
2021/06/08 04:25:11;;;;;;;23.23;9.00;;;;;;;;;;5092013;28;20020;-71
2021/06/08 04:27:36;;;;;;;23.07;9.93;;;;;;;;;;5094593;28;20089;-71
2021/06/08 04:30:03;;;;;;;23.53;9.10;;;;;;;;;;5087662;28;20047;-71
2021/06/08 04:32:31;;;;;;;27.63;9.93;;;;;;;;;;5086209;28;20088;-71
2021/06/08 04:34:56;;;;;;;24.13;10.23;;;;;;;;;;5092993;28;20028;-71
2021/06/08 04:37:22;;;;;;;21.70;9.30;;;;;;;;;;5091959;28;20081;-71
2021/06/08 04:39:48;;;;;;;23.10;9.57;;;;;;;;;;5093862;28;20020;-71
2021/06/08 04:42:14;;;;;;;22.83;9.37;;;;;;;;;;5095567;28;20050;-71
2021/06/08 04:44:43;;;;;;;26.37;10.60;;;;;;;;;;5083424;28;20016;-71
2021/06/08 04:47:09;;;;;;;26.50;10.03;;;;;;;;;;5091506;28;20020;-71
2021/06/08 04:49:34;;;;;;;22.63;9.33;;;;;;;;;;5095290;28;20491;-71
2021/06/08 04:51:59;;;;;;;23.87;10.13;;;;;;;;;;5093506;28;20047;-71
2021/06/08 04:54:25;;;;;;;24.70;9.47;;;;;;;;;;5093252;28;20023;-71
2021/06/08 04:56:50;;;;;;;25.07;9.30;;;;;;;;;;5094509;28;20027;-71
2021/06/08 04:59:17;;;;;;;22.87;9.70;;;;;;;;;;5089541;28;20052;-71
2021/06/08 05:01:43;;;;;;;22.93;10.23;;;;;;;;;;5090065;28;20439;-71
2021/06/08 05:04:11;;;;;;;23.03;9.60;;;;;;;;;;5090011;28;20135;-71
2021/06/08 05:06:41;;;;;;;24.43;9.50;;;;;;;;;;5090364;28;20026;-71
2021/06/08 05:09:11;;;;;;;23.97;9.20;;;;;;;;;;5091235;28;20036;-71
2021/06/08 05:11:40;;;;;;;22.50;9.47;;;;;;;;;;5090372;28;20067;-71
2021/06/08 05:14:21;;;;;;;25.57;9.03;;;;;;;;;;5089442;28;20044;-71
2021/06/08 05:16:47;;;;;;;22.63;9.30;;;;;;;;;;5089859;28;20040;-71
2021/06/08 05:19:14;;;;;;;21.40;9.40;;;;;;;;;;5092024;28;20035;-71
2021/06/08 05:21:40;;;;;;;21.67;9.63;;;;;;;;;;5089481;28;20024;-71
2021/06/08 05:24:06;;;;;;;20.80;9.33;;;;;;;;;;5094142;28;20024;-71
2021/06/08 05:26:32;;;;;;;22.87;9.20;;;;;;;;;;5089070;28;20030;-71
2021/06/08 05:28:57;;;;;;;20.90;8.50;;;;;;;;;;5086855;28;20060;-71
2021/06/08 05:31:23;;;;;;;21.30;9.33;;;;;;;;;;5091069;28;20027;-71
2021/06/08 05:33:48;;;;;;;18.63;8.30;;;;;;;;;;5087827;28;20032;-71
2021/06/08 05:36:14;;;;;;;20.70;9.40;;;;;;;;;;5090805;28;20028;-71
2021/06/08 05:38:40;;;;;;;20.10;8.17;;;;;;;;;;5091871;28;20042;-71
2021/06/08 05:41:10;;;;;;;20.20;8.57;;;;;;;;;;5094736;28;20472;-70
2021/06/08 05:43:37;;;;;;;19.13;7.93;;;;;;;;;;5085985;28;20471;-70
2021/06/08 05:46:03;;;;;;;28.47;8.63;;;;;;;;;;5089883;28;20360;-70
2021/06/08 05:48:28;;;;;;;20.27;8.50;;;;;;;;;;5088270;28;20089;-70
2021/06/08 05:50:57;;;;;;;20.80;8.63;;;;;;;;;;5086712;28;20024;-70
2021/06/08 05:53:22;;;;;;;18.00;7.63;;;;;;;;;;5094519;28;20434;-70
2021/06/08 05:55:49;;;;;;;17.80;8.37;;;;;;;;;;5089014;28;20036;-70
2021/06/08 05:58:15;;;;;;;18.60;7.87;;;;;;;;;;5090414;28;20031;-70
2021/06/08 06:00:40;;;;;;;18.73;8.40;;;;;;;;;;5093855;28;20461;-70
2021/06/08 06:03:05;;;;;;;22.93;8.67;;;;;;;;;;5083652;28;20051;-70
2021/06/08 06:05:31;;;;;;;18.90;8.37;;;;;;;;;;5085524;28;20020;-70
2021/06/08 06:07:56;;;;;;;19.00;8.17;;;;;;;;;;5091698;28;20024;-70
2021/06/08 06:10:22;;;;;;;17.87;7.83;;;;;;;;;;5090035;28;20028;-70
2021/06/08 06:12:48;;;;;;;18.53;8.40;;;;;;;;;;5090729;28;20020;-70
2021/06/08 06:15:14;;;;;;;17.60;8.23;;;;;;;;;;5091176;28;20050;-70
2021/06/08 06:17:40;;;;;;;17.23;7.80;;;;;;;;;;5086338;28;20029;-70
2021/06/08 06:20:13;;;;;;;17.17;7.80;;;;;;;;;;5093375;28;20503;-70
2021/06/08 06:22:38;;;;;;;15.73;7.20;;;;;;;;;;5088460;28;20502;-70
2021/06/08 06:25:05;;;;;;;15.43;7.03;;;;;;;;;;5090883;28;20024;-70
2021/06/08 06:27:32;;;;;;;13.80;6.97;;;;;;;;;;5091306;28;20020;-70
2021/06/08 06:29:58;;;;;;;13.27;7.10;;;;;;;;;;5091286;28;20024;-70
2021/06/08 06:32:23;;;;;;;14.70;7.00;;;;;;;;;;5092701;28;20123;-70
2021/06/08 06:34:49;;;;;;;16.83;7.00;;;;;;;;;;5095167;28;20020;-70
2021/06/08 06:37:14;;;;;;;12.40;6.27;;;;;;;;;;5094999;28;20035;-70
2021/06/08 06:39:42;;;;;;;16.17;6.70;;;;;;;;;;5095490;28;20089;-70
2021/06/08 06:42:12;;;;;;;14.17;6.37;;;;;;;;;;5095224;28;20458;-70
2021/06/08 06:44:37;;;;;;;14.70;6.30;;;;;;;;;;5095503;28;20023;-69
2021/06/08 06:47:03;;;;;;;13.70;6.32;;;;;;;;;;5094884;28;20485;-69
2021/06/08 06:49:28;;;;;;;12.35;6.38;;;;;;;;;;5095095;28;20016;-70
2021/06/08 06:51:56;;;;;;;12.98;6.55;;;;;;;;;;5096837;28;20024;-70
2021/06/08 06:54:22;;;;;;;13.30;6.55;;;;;;;;;;5095116;28;20111;-70
2021/06/08 06:56:48;;;;;;;12.90;6.60;;;;;;;;;;5096353;28;20016;-70
2021/06/08 06:59:14;;;;;;;12.18;6.43;;;;;;;;;;5095169;28;20070;-70
2021/06/08 07:01:41;;;;;;;14.88;6.18;;;;;;;;;;5094673;28;20471;-70
2021/06/08 07:04:09;;;;;;;12.27;6.00;;;;;;;;;;5094633;28;20356;-70
2021/06/08 07:06:35;;;;;;;10.98;6.20;;;;;;;;;;5094555;28;20020;-69
2021/06/08 07:09:00;;;;;;;11.45;5.93;;;;;;;;;;5095050;28;20340;-69
2021/06/08 07:11:26;;;;;;;11.68;6.18;;;;;;;;;;5094616;28;20433;-69
2021/06/08 07:13:52;;;;;;;12.13;6.40;;;;;;;;;;5095060;28;20475;-69
2021/06/08 07:16:18;;;;;;;11.15;5.70;;;;;;;;;;5094300;28;20410;-69
2021/06/08 07:18:45;;;;;;;10.57;5.68;;;;;;;;;;5094544;28;20031;-70
2021/06/08 07:21:11;;;;;;;12.10;5.68;;;;;;;;;;5094321;28;20020;-70
2021/06/08 07:23:37;;;;;;;12.02;5.40;;;;;;;;;;5083748;28;20460;-70
2021/06/08 07:26:03;;;;;;;11.55;5.63;;;;;;;;;;5094164;28;20026;-70
2021/06/08 07:28:30;;;;;;;10.43;5.57;;;;;;;;;;5094862;28;20483;-70
2021/06/08 07:30:56;;;;;;;12.43;5.65;;;;;;;;;;5094119;28;20024;-70
2021/06/08 07:33:41;;;;;;;12.77;5.38;;;;;;;;;;5094808;28;20349;-70
2021/06/08 07:36:15;;;;;;;10.32;5.22;;;;;;;;;;5093899;28;20032;-70
2021/06/08 07:38:49;;;;;;;10.95;5.65;;;;;;;;;;5086423;28;20020;-70
2021/06/08 07:41:17;;;;;;;14.18;5.97;;;;;;;;;;5093885;28;20476;-70
2021/06/08 07:43:51;;;;;;;9.48;5.13;;;;;;;;;;5093382;28;20016;-70
2021/06/08 07:46:18;;;;;;;11.95;5.90;;;;;;;;;;5093785;28;20016;-70
2021/06/08 07:48:44;;;;;;;11.35;5.90;;;;;;;;;;5093957;28;20035;-70
2021/06/08 07:51:11;;;;;;;11.65;5.70;;;;;;;;;;5096103;28;20785;-70
2021/06/08 07:53:36;;;;;;;10.55;5.40;;;;;;;;;;5093559;28;20102;-70
2021/06/08 07:56:02;;;;;;;10.02;5.78;;;;;;;;;;5096292;28;20158;-70
2021/06/08 07:58:27;;;;;;;12.50;5.95;;;;;;;;;;5093502;28;20032;-71
2021/06/08 08:00:56;;;;;;;10.32;5.97;;;;;;;;;;5093902;28;20046;-71
2021/06/08 08:03:28;;;;;;;9.55;5.43;;;;;;;;;;5093499;28;20051;-70
2021/06/08 08:05:57;;;;;;;14.05;5.55;;;;;;;;;;5093769;28;20468;-70
2021/06/08 08:08:23;;;;;;;9.77;5.13;;;;;;;;;;5094247;28;20111;-70
2021/06/08 08:10:49;;;;;;;9.73;5.38;;;;;;;;;;5093395;28;20103;-70
2021/06/08 08:13:17;;;;;;;10.88;5.22;;;;;;;;;;5093506;28;20032;-70
2021/06/08 08:15:46;;;;;;;9.05;5.10;;;;;;;;;;5093800;28;20027;-70
2021/06/08 08:18:11;;;;;;;9.40;5.07;;;;;;;;;;5093047;28;20039;-70
2021/06/08 08:20:48;;;;;;;9.27;5.03;;;;;;;;;;5093796;28;20043;-70
2021/06/08 08:23:14;;;;;;;8.98;4.60;;;;;;;;;;5093310;28;20024;-70
2021/06/08 08:25:40;;;;;;;9.63;4.65;;;;;;;;;;5093217;28;20019;-70
2021/06/08 08:28:06;;;;;;;9.43;4.90;;;;;;;;;;5092956;28;20511;-70
2021/06/08 08:30:32;;;;;;;8.43;4.70;;;;;;;;;;5092815;28;20388;-70
2021/06/08 08:32:57;;;;;;;8.85;4.88;;;;;;;;;;5093163;28;20027;-70
2021/06/08 08:35:23;;;;;;;10.60;4.78;;;;;;;;;;5093087;28;20026;-70
2021/06/08 08:37:48;;;;;;;7.43;4.60;;;;;;;;;;5092658;28;20036;-70
2021/06/08 08:40:14;;;;;;;8.25;4.13;;;;;;;;;;5093029;28;20099;-70
2021/06/08 08:42:40;;;;;;;9.55;4.32;;;;;;;;;;5092985;28;20044;-70
2021/06/08 08:45:05;;;;;;;9.07;4.70;;;;;;;;;;5093052;28;20051;-70
2021/06/08 08:47:31;;;;;;;10.43;5.20;;;;;;;;;;5092801;28;20606;-70
2021/06/08 08:49:57;;;;;;;8.02;4.72;;;;;;;;;;5094083;28;20047;-70
2021/06/08 08:52:22;;;;;;;8.95;4.88;;;;;;;;;;5093213;28;20530;-70
2021/06/08 08:54:48;;;;;;;9.15;4.57;;;;;;;;;;5093586;28;20043;-70
2021/06/08 08:57:16;;;;;;;9.07;4.78;;;;;;;;;;5092642;28;20472;-70
2021/06/08 08:59:41;;;;;;;9.20;4.78;;;;;;;;;;5092490;28;20023;-70
2021/06/08 09:02:08;;;;;;;8.77;4.90;;;;;;;;;;5091877;28;20157;-70
2021/06/08 09:04:33;;;;;;;11.80;5.40;;;;;;;;;;5089778;28;20020;-70
2021/06/08 09:06:59;;;;;;;8.40;4.80;;;;;;;;;;5087939;28;20019;-70
2021/06/08 09:09:24;;;;;;;10.02;5.30;;;;;;;;;;5089700;28;20341;-70
2021/06/08 09:11:49;;;;;;;11.15;5.22;;;;;;;;;;5090206;28;20497;-70
2021/06/08 09:14:15;;;;;;;10.80;5.25;;;;;;;;;;5087754;28;20027;-70
2021/06/08 09:16:41;;;;;;;8.73;4.78;;;;;;;;;;5089038;28;20107;-70
2021/06/08 09:19:07;;;;;;;8.00;4.47;;;;;;;;;;5089279;28;20115;-70
2021/06/08 09:21:33;;;;;;;9.90;5.43;;;;;;;;;;5088728;28;20027;-70
2021/06/08 09:24:14;;;;;;;9.38;5.30;;;;;;;;;;5088727;28;20024;-69
2021/06/08 09:26:49;;;;;;;9.35;5.07;;;;;;;;;;5078904;28;20028;-70
2021/06/08 09:29:50;;;;;;;8.60;5.03;;;;;;;;;;5088796;28;20498;-70
2021/06/08 09:32:22;;;;;;;8.63;5.20;;;;;;;;;;4979610;28;20049;-70
2021/06/08 09:34:57;;;;;;;8.73;4.60;;;;;;;;;;4988249;28;20301;-70
2021/06/08 09:37:32;;;;;;;9.40;5.25;;;;;;;;;;4986598;28;20461;-70
2021/06/08 09:39:58;;;;;;;9.27;5.38;;;;;;;;;;4974796;28;20121;-70
2021/06/08 09:42:24;;;;;;;11.25;5.68;;;;;;;;;;4979615;28;20102;-71
2021/06/08 09:44:50;;;;;;;10.02;5.15;;;;;;;;;;4986658;28;20058;-71
2021/06/08 09:47:25;;;;;;;8.77;4.95;;;;;;;;;;4986111;28;20205;-70
2021/06/08 09:49:50;;;;;;;9.10;4.90;;;;;;;;;;4987889;28;20097;-70
2021/06/08 09:52:18;;;;;;;10.43;5.20;;;;;;;;;;4982000;28;20114;-70
2021/06/08 09:54:44;;;;;;;7.45;4.70;;;;;;;;;;4967499;28;20059;-70
2021/06/08 09:57:32;;;;;;;9.25;4.90;;;;;;;;;;4986250;28;20562;-70
2021/06/08 09:59:58;;;;;;;6.93;4.22;;;;;;;;;;4986737;28;20030;-70
2021/06/08 10:02:28;;;;;;;8.65;4.38;;;;;;;;;;4992281;28;20515;-70
2021/06/08 10:04:54;;;;;;;7.78;4.35;;;;;;;;;;4984940;28;20488;-71
2021/06/08 10:07:29;;;;;;;8.15;3.90;;;;;;;;;;5074996;28;20091;-70
2021/06/08 10:10:06;;;;;;;8.02;4.47;;;;;;;;;;5088274;28;20028;-71
2021/06/08 10:12:31;;;;;;;6.60;4.18;;;;;;;;;;5088156;28;20024;-71
2021/06/08 10:15:09;;;;;;;9.80;4.75;;;;;;;;;;5088065;28;20028;-71
2021/06/08 10:17:37;;;;;;;7.65;4.63;;;;;;;;;;5088616;28;20534;-71
2021/06/08 10:20:22;;;;;;;6.63;4.05;;;;;;;;;;5088539;28;20046;-71
2021/06/08 10:22:47;;;;;;;7.28;4.38;;;;;;;;;;5087926;28;20024;-71
2021/06/08 10:25:13;;;;;;;8.20;4.95;;;;;;;;;;5091886;28;20024;-71
2021/06/08 10:27:38;;;;;;;8.45;5.20;;;;;;;;;;5088217;28;20040;-72
2021/06/08 10:30:04;;;;;;;7.25;4.65;;;;;;;;;;5088302;28;20032;-71
2021/06/08 10:32:29;;;;;;;8.45;5.30;;;;;;;;;;5088093;28;20475;-72
2021/06/08 10:34:55;;;;;;;7.50;4.97;;;;;;;;;;5088244;28;20047;-72
2021/06/08 10:37:21;;;;;;;8.68;4.53;;;;;;;;;;5088120;28;20036;-71
2021/06/08 10:39:47;;;;;;;7.47;4.43;;;;;;;;;;5088579;28;20020;-71
2021/06/08 10:42:15;;;;;;;9.05;5.10;;;;;;;;;;5088119;28;20032;-71
2021/06/08 10:44:41;;;;;;;8.68;5.03;;;;;;;;;;5088546;28;20058;-71
2021/06/08 10:47:20;;;;;;;8.65;5.40;;;;;;;;;;5087832;28;20464;-71
2021/06/08 10:49:46;;;;;;;8.23;4.78;;;;;;;;;;5086665;28;20032;-70
2021/06/08 10:52:12;;;;;;;6.50;4.20;;;;;;;;;;5088296;28;20030;-70
2021/06/08 10:54:38;;;;;;;9.95;5.57;;;;;;;;;;5089442;28;20035;-71
2021/06/08 10:57:11;;;;;;;7.25;5.15;;;;;;;;;;5087922;28;20054;-71
2021/06/08 10:59:37;;;;;;;7.72;4.70;;;;;;;;;;5087479;28;20031;-71
2021/06/08 11:02:03;;;;;;;7.40;4.70;;;;;;;;;;5086479;28;20024;-71
2021/06/08 11:04:46;;;;;;;7.85;5.00;;;;;;;;;;5088098;28;20024;-71
2021/06/08 11:07:12;;;;;;;11.73;5.75;;;;;;;;;;5088133;28;20110;-71
2021/06/08 11:09:38;;;;;;;10.73;5.32;;;;;;;;;;5087720;28;20039;-71
2021/06/08 11:12:24;;;;;;;7.90;5.03;;;;;;;;;;5090314;28;20027;-72
2021/06/08 11:14:59;;;;;;;7.40;4.82;;;;;;;;;;5100054;28;20020;-72
2021/06/08 11:17:50;;;;;;;6.78;4.65;;;;;;;;;;5091832;28;20063;-71
2021/06/08 11:20:18;;;;;;;6.43;4.43;;;;;;;;;;5084991;28;20064;-72
2021/06/08 11:22:56;;;;;;;7.55;4.70;;;;;;;;;;5092570;28;20031;-72
2021/06/08 11:25:32;;;;;;;8.77;5.35;;;;;;;;;;5090076;28;20476;-71
2021/06/08 11:28:08;;;;;;;7.50;4.97;;;;;;;;;;5089358;28;20112;-72
2021/06/08 11:30:56;;;;;;;6.65;4.45;;;;;;;;;;5089723;28;20502;-72
2021/06/08 11:33:26;;;;;;;8.65;4.90;;;;;;;;;;5069714;28;20028;-71
2021/06/08 11:35:51;;;;;;;8.02;5.63;;;;;;;;;;5089267;28;20029;-71
2021/06/08 11:38:43;;;;;;;8.05;5.18;;;;;;;;;;5089259;28;20030;-71
2021/06/08 11:41:08;;;;;;;;;;;;;;;;;;5086870;28;20392;-71
2021/06/08 11:43:54;;;;;;;8.50;5.82;;;;;;;;;;5091151;28;19912;-71
2021/06/08 11:46:29;;;;;;;11.90;6.00;;;;;;;;;;5073245;28;20040;-71
2021/06/08 11:49:05;;;;;;;10.68;5.80;;;;;;;;;;5090398;28;20695;-71
2021/06/08 11:51:40;;;;;;;10.93;6.47;;;;;;;;;;5088661;28;20023;-71
2021/06/08 11:54:28;;;;;;;9.82;6.13;;;;;;;;;;5090542;28;20028;-71
2021/06/08 11:57:01;;;;;;;8.68;5.95;;;;;;;;;;5081528;28;20073;-71
2021/06/08 11:59:27;;;;;;;9.18;6.72;;;;;;;;;;5091044;28;20059;-71
2021/06/08 12:01:57;;;;;;;8.55;5.63;;;;;;;;;;5090075;28;20024;-71
2021/06/08 12:04:25;;;;;;;7.70;4.63;;;;;;;;;;5090741;28;20050;-71
2021/06/08 12:06:57;;;;;;;7.95;4.55;;;;;;;;;;5090427;28;20693;-72
2021/06/08 12:09:23;;;;;;;8.07;4.10;;;;;;;;;;5088823;28;20032;-72
2021/06/08 12:11:49;;;;;;;7.45;4.50;;;;;;;;;;5090066;28;20035;-72
2021/06/08 12:14:14;;;;;;;6.30;4.55;;;;;;;;;;5090657;28;20020;-72
2021/06/08 12:16:46;;;;;;;8.50;4.78;;;;;;;;;;5089305;28;20028;-72
2021/06/08 12:19:12;;;;;;;6.47;4.45;;;;;;;;;;5090389;28;20035;-72
2021/06/08 12:21:43;;;;;;;7.07;4.57;;;;;;;;;;5079889;28;20024;-72
2021/06/08 12:24:08;;;;;;;6.90;4.45;;;;;;;;;;5088473;28;20433;-72
2021/06/08 12:26:36;;;;;;;8.27;4.50;;;;;;;;;;5089719;28;20032;-72
2021/06/08 12:29:14;;;;;;;6.78;4.55;;;;;;;;;;5089917;28;20458;-72
2021/06/08 12:31:50;;;;;;;9.73;4.32;;;;;;;;;;5092497;28;20137;-71
2021/06/08 12:34:17;;;;;;;7.18;4.00;;;;;;;;;;5093014;28;20032;-71
2021/06/08 12:36:44;;;;;;;7.60;4.38;;;;;;;;;;5089967;28;20479;-71
2021/06/08 12:39:10;;;;;;;9.23;6.05;;;;;;;;;;5089320;28;20047;-71
2021/06/08 12:41:36;;;;;;;9.43;5.47;;;;;;;;;;5089866;28;20028;-71
2021/06/08 12:44:01;;;;;;;6.25;4.10;;;;;;;;;;5089623;28;20035;-71
2021/06/08 12:46:31;;;;;;;7.18;4.38;;;;;;;;;;5088775;28;20028;-71
2021/06/08 12:49:26;;;;;;;10.73;4.93;;;;;;;;;;5094187;28;20027;-71
2021/06/08 12:51:52;;;;;;;12.10;5.35;;;;;;;;;;5062505;28;20043;-71
2021/06/08 12:54:28;;;;;;;7.22;3.83;;;;;;;;;;5087613;28;20024;-71
2021/06/08 12:56:54;;;;;;;8.00;4.15;;;;;;;;;;5089898;28;20024;-71
2021/06/08 12:59:23;;;;;;;9.93;4.38;;;;;;;;;;5088429;28;20097;-71
2021/06/08 13:01:49;;;;;;;6.47;3.85;;;;;;;;;;5089047;28;20020;-71
2021/06/08 13:04:15;;;;;;;7.60;3.85;;;;;;;;;;5089185;28;20490;-71
2021/06/08 13:06:40;;;;;;;8.23;3.78;;;;;;;;;;5089323;28;20057;-72
2021/06/08 13:09:05;;;;;;;6.80;3.00;;;;;;;;;;5089641;28;20379;-72
2021/06/08 13:11:31;;;;;;;7.45;3.30;;;;;;;;;;5088827;28;20336;-72
2021/06/08 13:13:56;;;;;;;6.53;3.40;;;;;;;;;;5089315;28;20054;-72
2021/06/08 13:16:48;;;;;;;5.63;3.20;;;;;;;;;;5088462;28;20032;-72
2021/06/08 13:19:24;;;;;;;5.50;3.28;;;;;;;;;;5074823;28;20572;-72
2021/06/08 13:21:51;;;;;;;6.65;3.42;;;;;;;;;;5088845;28;20095;-72
2021/06/08 13:24:26;;;;;;;8.52;3.67;;;;;;;;;;5088855;28;20557;-71
2021/06/08 13:27:12;;;;;;;5.97;3.35;;;;;;;;;;5087822;28;20028;-71
2021/06/08 13:29:37;;;;;;;6.10;3.25;;;;;;;;;;5086187;28;20039;-71
2021/06/08 13:32:03;;;;;;;5.38;3.05;;;;;;;;;;5087343;28;20092;-71
2021/06/08 13:34:30;;;;;;;8.52;3.67;;;;;;;;;;5082382;28;20031;-71
2021/06/08 13:37:05;;;;;;;8.00;3.55;;;;;;;;;;5088133;28;20044;-71
2021/06/08 13:39:44;;;;;;;7.10;3.65;;;;;;;;;;5088408;28;20076;-71
2021/06/08 13:42:27;;;;;;;5.75;3.20;;;;;;;;;;5088134;28;20096;-71
2021/06/08 13:44:59;;;;;;;7.47;3.75;;;;;;;;;;5088228;28;20039;-71
2021/06/08 13:47:41;;;;;;;7.70;3.65;;;;;;;;;;5082302;28;20020;-71
2021/06/08 13:50:22;;;;;;;9.40;3.95;;;;;;;;;;5080712;28;20028;-71
2021/06/08 13:53:00;;;;;;;9.50;3.97;;;;;;;;;;5088463;28;20024;-71
2021/06/08 13:55:25;;;;;;;8.13;3.83;;;;;;;;;;5091703;28;20036;-71
2021/06/08 14:00:17;;;;;;;8.85;4.20;;;;;;;;;;5088142;28;20078;-71
2021/06/08 14:01:02;;;;;;;6.50;4.05;;;;;;;;;;5083676;28;20032;-71
2021/06/08 14:03:27;;;;;;;8.00;5.00;;;;;;;;;;5086860;28;20139;-71
2021/06/08 14:06:05;;;;;;;8.82;4.38;;;;;;;;;;5087342;28;20512;-71
2021/06/08 14:08:30;;;;;;;8.52;4.15;;;;;;;;;;5079710;28;20373;-71
2021/06/08 14:10:57;;;;;;;6.68;4.22;;;;;;;;;;5087196;28;20114;-71
2021/06/08 14:13:30;;;;;;;7.07;4.25;;;;;;;;;;5088082;28;20062;-71
2021/06/08 14:15:55;;;;;;;7.07;4.30;;;;;;;;;;5087688;28;20036;-71
2021/06/08 14:18:20;;;;;;;6.82;3.90;;;;;;;;;;5087846;28;20494;-71
2021/06/08 14:20:46;;;;;;;6.43;3.92;;;;;;;;;;5086969;28;20383;-71
2021/06/08 14:23:11;;;;;;;7.28;4.10;;;;;;;;;;5087904;28;20028;-71
2021/06/08 14:25:36;;;;;;;7.45;4.50;;;;;;;;;;5086890;28;20030;-71
2021/06/08 14:28:05;;;;;;;7.03;4.07;;;;;;;;;;5087482;28;20032;-71
2021/06/08 14:30:31;;;;;;;6.80;3.88;;;;;;;;;;5087442;28;20028;-71
2021/06/08 14:32:56;;;;;;;7.93;4.13;;;;;;;;;;5087032;28;20051;-71
2021/06/08 14:35:22;;;;;;;7.38;4.28;;;;;;;;;;5087838;28;20085;-71
2021/06/08 14:37:47;;;;;;;7.05;4.53;;;;;;;;;;5088320;28;20028;-71
2021/06/08 14:40:13;;;;;;;8.48;4.55;;;;;;;;;;5087688;28;20480;-71
2021/06/08 14:42:38;;;;;;;7.30;4.72;;;;;;;;;;5087173;28;20349;-71